sensor_id;sensor_type;location;lat;lon;timestamp;P1;durP1;ratioP1;P2;durP2;ratioP2
50988;SDS011;37008;52.210;21.112;2023-01-04T00:00:58;12.65;;;6.18;;
50988;SDS011;37008;52.210;21.112;2023-01-04T00:03:24;10.57;;;5.80;;
50988;SDS011;37008;52.210;21.112;2023-01-04T00:05:49;17.73;;;6.50;;
50988;SDS011;37008;52.210;21.112;2023-01-04T00:08:15;10.30;;;6.07;;
50988;SDS011;37008;52.210;21.112;2023-01-04T00:10:40;15.52;;;6.80;;
50988;SDS011;37008;52.210;21.112;2023-01-04T00:13:06;11.98;;;6.10;;
50988;SDS011;37008;52.210;21.112;2023-01-04T00:15:31;17.02;;;6.70;;
50988;SDS011;37008;52.210;21.112;2023-01-04T00:17:57;12.20;;;5.90;;
50988;SDS011;37008;52.210;21.112;2023-01-04T00:20:23;14.02;;;6.30;;
50988;SDS011;37008;52.210;21.112;2023-01-04T00:22:48;14.70;;;6.70;;
50988;SDS011;37008;52.210;21.112;2023-01-04T00:25:14;12.70;;;5.93;;
50988;SDS011;37008;52.210;21.112;2023-01-04T00:27:39;15.82;;;6.70;;
50988;SDS011;37008;52.210;21.112;2023-01-04T00:30:06;15.50;;;6.60;;
50988;SDS011;37008;52.210;21.112;2023-01-04T00:32:32;13.68;;;6.32;;
50988;SDS011;37008;52.210;21.112;2023-01-04T00:34:57;12.13;;;5.82;;
50988;SDS011;37008;52.210;21.112;2023-01-04T00:37:23;12.48;;;5.82;;
50988;SDS011;37008;52.210;21.112;2023-01-04T00:39:49;12.82;;;5.95;;
50988;SDS011;37008;52.210;21.112;2023-01-04T00:42:14;13.00;;;5.88;;
50988;SDS011;37008;52.210;21.112;2023-01-04T00:44:40;15.25;;;6.28;;
50988;SDS011;37008;52.210;21.112;2023-01-04T00:47:05;10.48;;;5.97;;
50988;SDS011;37008;52.210;21.112;2023-01-04T00:49:31;12.40;;;5.93;;
50988;SDS011;37008;52.210;21.112;2023-01-04T00:51:57;11.70;;;6.35;;
50988;SDS011;37008;52.210;21.112;2023-01-04T00:54:22;14.65;;;6.20;;
50988;SDS011;37008;52.210;21.112;2023-01-04T00:56:48;12.18;;;6.57;;
50988;SDS011;37008;52.210;21.112;2023-01-04T00:59:15;11.93;;;7.05;;
50988;SDS011;37008;52.210;21.112;2023-01-04T01:01:42;13.90;;;6.80;;
50988;SDS011;37008;52.210;21.112;2023-01-04T01:04:09;16.15;;;6.82;;
50988;SDS011;37008;52.210;21.112;2023-01-04T01:06:37;15.32;;;7.10;;
50988;SDS011;37008;52.210;21.112;2023-01-04T01:09:02;14.27;;;6.50;;
50988;SDS011;37008;52.210;21.112;2023-01-04T01:11:28;18.58;;;7.97;;
50988;SDS011;37008;52.210;21.112;2023-01-04T01:13:55;14.70;;;6.60;;
50988;SDS011;37008;52.210;21.112;2023-01-04T01:16:22;16.48;;;7.78;;
50988;SDS011;37008;52.210;21.112;2023-01-04T01:18:49;14.38;;;8.68;;
50988;SDS011;37008;52.210;21.112;2023-01-04T01:21:16;14.82;;;8.02;;
50988;SDS011;37008;52.210;21.112;2023-01-04T01:23:44;17.10;;;9.07;;
50988;SDS011;37008;52.210;21.112;2023-01-04T01:26:12;16.33;;;8.20;;
50988;SDS011;37008;52.210;21.112;2023-01-04T01:28:39;18.13;;;8.40;;
50988;SDS011;37008;52.210;21.112;2023-01-04T01:31:12;15.65;;;8.63;;
50988;SDS011;37008;52.210;21.112;2023-01-04T01:33:39;13.32;;;7.45;;
50988;SDS011;37008;52.210;21.112;2023-01-04T01:36:06;16.10;;;7.95;;
50988;SDS011;37008;52.210;21.112;2023-01-04T01:38:33;18.25;;;8.43;;
50988;SDS011;37008;52.210;21.112;2023-01-04T01:40:59;18.92;;;8.75;;
50988;SDS011;37008;52.210;21.112;2023-01-04T01:43:45;19.27;;;9.23;;
50988;SDS011;37008;52.210;21.112;2023-01-04T01:46:11;17.42;;;8.27;;
50988;SDS011;37008;52.210;21.112;2023-01-04T01:48:37;18.98;;;8.95;;
50988;SDS011;37008;52.210;21.112;2023-01-04T01:51:04;20.25;;;9.75;;
50988;SDS011;37008;52.210;21.112;2023-01-04T01:53:34;17.27;;;8.82;;
50988;SDS011;37008;52.210;21.112;2023-01-04T01:56:05;18.33;;;8.85;;
50988;SDS011;37008;52.210;21.112;2023-01-04T01:58:38;18.67;;;9.00;;
50988;SDS011;37008;52.210;21.112;2023-01-04T02:01:08;17.15;;;8.95;;
50988;SDS011;37008;52.210;21.112;2023-01-04T02:03:35;14.25;;;9.02;;
50988;SDS011;37008;52.210;21.112;2023-01-04T02:06:06;21.35;;;9.68;;
50988;SDS011;37008;52.210;21.112;2023-01-04T02:08:38;15.88;;;8.93;;
50988;SDS011;37008;52.210;21.112;2023-01-04T02:11:06;20.05;;;9.65;;
50988;SDS011;37008;52.210;21.112;2023-01-04T02:13:33;20.92;;;10.13;;
50988;SDS011;37008;52.210;21.112;2023-01-04T02:19:06;21.15;;;9.63;;
50988;SDS011;37008;52.210;21.112;2023-01-04T02:33:49;22.38;;;10.07;;
50988;SDS011;37008;52.210;21.112;2023-01-04T02:36:33;18.10;;;9.90;;
50988;SDS011;37008;52.210;21.112;2023-01-04T02:39:06;19.67;;;10.00;;
50988;SDS011;37008;52.210;21.112;2023-01-04T02:42:39;21.35;;;10.55;;
50988;SDS011;37008;52.210;21.112;2023-01-04T02:44:42;25.65;;;10.85;;
50988;SDS011;37008;52.210;21.112;2023-01-04T02:50:15;16.67;;;10.52;;
50988;SDS011;37008;52.210;21.112;2023-01-04T02:53:41;20.58;;;11.52;;
50988;SDS011;37008;52.210;21.112;2023-01-04T02:58:37;17.88;;;11.88;;
50988;SDS011;37008;52.210;21.112;2023-01-04T03:04:10;21.17;;;11.88;;
50988;SDS011;37008;52.210;21.112;2023-01-04T03:07:08;24.83;;;12.35;;
50988;SDS011;37008;52.210;21.112;2023-01-04T03:09:52;27.83;;;12.95;;
50988;SDS011;37008;52.210;21.112;2023-01-04T03:12:25;24.15;;;13.73;;
50988;SDS011;37008;52.210;21.112;2023-01-04T03:17:47;28.00;;;14.10;;
50988;SDS011;37008;52.210;21.112;2023-01-04T03:20:17;26.55;;;13.93;;
50988;SDS011;37008;52.210;21.112;2023-01-04T03:23:06;28.15;;;13.70;;
50988;SDS011;37008;52.210;21.112;2023-01-04T03:25:56;31.45;;;14.73;;
50988;SDS011;37008;52.210;21.112;2023-01-04T03:28:45;27.13;;;14.15;;
50988;SDS011;37008;52.210;21.112;2023-01-04T03:31:35;23.73;;;13.85;;
50988;SDS011;37008;52.210;21.112;2023-01-04T03:34:25;26.98;;;15.02;;
50988;SDS011;37008;52.210;21.112;2023-01-04T03:37:22;26.25;;;16.20;;
50988;SDS011;37008;52.210;21.112;2023-01-04T03:46:12;32.42;;;18.90;;
50988;SDS011;37008;52.210;21.112;2023-01-04T03:49:08;31.00;;;17.95;;
50988;SDS011;37008;52.210;21.112;2023-01-04T03:51:43;32.88;;;18.92;;
50988;SDS011;37008;52.210;21.112;2023-01-04T03:54:13;33.72;;;18.85;;
50988;SDS011;37008;52.210;21.112;2023-01-04T03:56:43;29.30;;;17.83;;
50988;SDS011;37008;52.210;21.112;2023-01-04T03:59:09;28.27;;;17.17;;
50988;SDS011;37008;52.210;21.112;2023-01-04T04:01:36;30.55;;;18.17;;
50988;SDS011;37008;52.210;21.112;2023-01-04T04:04:03;32.13;;;17.48;;
50988;SDS011;37008;52.210;21.112;2023-01-04T04:06:47;31.10;;;18.20;;
50988;SDS011;37008;52.210;21.112;2023-01-04T04:09:32;31.55;;;17.00;;
50988;SDS011;37008;52.210;21.112;2023-01-04T04:11:58;30.05;;;17.23;;
50988;SDS011;37008;52.210;21.112;2023-01-04T04:14:23;34.40;;;17.48;;
50988;SDS011;37008;52.210;21.112;2023-01-04T04:16:49;29.85;;;19.13;;
50988;SDS011;37008;52.210;21.112;2023-01-04T04:19:15;30.58;;;18.67;;
50988;SDS011;37008;52.210;21.112;2023-01-04T04:21:40;28.77;;;18.23;;
50988;SDS011;37008;52.210;21.112;2023-01-04T04:24:06;27.38;;;16.83;;
50988;SDS011;37008;52.210;21.112;2023-01-04T04:26:34;35.83;;;18.13;;
50988;SDS011;37008;52.210;21.112;2023-01-04T04:28:59;32.58;;;17.75;;
50988;SDS011;37008;52.210;21.112;2023-01-04T04:31:25;31.27;;;17.35;;
50988;SDS011;37008;52.210;21.112;2023-01-04T04:33:51;31.48;;;18.58;;
50988;SDS011;37008;52.210;21.112;2023-01-04T04:36:16;28.23;;;16.30;;
50988;SDS011;37008;52.210;21.112;2023-01-04T04:38:42;30.23;;;17.23;;
50988;SDS011;37008;52.210;21.112;2023-01-04T04:41:09;37.03;;;18.08;;
50988;SDS011;37008;52.210;21.112;2023-01-04T04:43:54;33.05;;;17.67;;
50988;SDS011;37008;52.210;21.112;2023-01-04T04:46:21;31.23;;;17.60;;
50988;SDS011;37008;52.210;21.112;2023-01-04T04:48:46;29.83;;;16.60;;
50988;SDS011;37008;52.210;21.112;2023-01-04T04:51:12;28.70;;;16.42;;
50988;SDS011;37008;52.210;21.112;2023-01-04T04:53:38;32.80;;;17.88;;
50988;SDS011;37008;52.210;21.112;2023-01-04T04:56:04;30.70;;;16.83;;
50988;SDS011;37008;52.210;21.112;2023-01-04T04:58:30;33.97;;;18.15;;
50988;SDS011;37008;52.210;21.112;2023-01-04T05:00:56;32.40;;;16.42;;
50988;SDS011;37008;52.210;21.112;2023-01-04T05:03:21;30.60;;;16.35;;
50988;SDS011;37008;52.210;21.112;2023-01-04T05:05:47;30.05;;;17.52;;
50988;SDS011;37008;52.210;21.112;2023-01-04T05:08:12;31.80;;;16.67;;
50988;SDS011;37008;52.210;21.112;2023-01-04T05:10:38;30.83;;;17.02;;
50988;SDS011;37008;52.210;21.112;2023-01-04T05:13:04;32.45;;;17.73;;
50988;SDS011;37008;52.210;21.112;2023-01-04T05:15:35;36.85;;;17.63;;
50988;SDS011;37008;52.210;21.112;2023-01-04T05:18:03;36.67;;;18.88;;
50988;SDS011;37008;52.210;21.112;2023-01-04T05:20:30;30.60;;;18.20;;
50988;SDS011;37008;52.210;21.112;2023-01-04T05:22:56;34.10;;;17.65;;
50988;SDS011;37008;52.210;21.112;2023-01-04T05:25:21;35.00;;;18.10;;
50988;SDS011;37008;52.210;21.112;2023-01-04T05:27:47;34.03;;;18.50;;
50988;SDS011;37008;52.210;21.112;2023-01-04T05:30:13;31.33;;;17.90;;
50988;SDS011;37008;52.210;21.112;2023-01-04T05:32:58;29.00;;;16.83;;
50988;SDS011;37008;52.210;21.112;2023-01-04T05:35:24;31.50;;;17.45;;
50988;SDS011;37008;52.210;21.112;2023-01-04T05:37:50;35.95;;;17.98;;
50988;SDS011;37008;52.210;21.112;2023-01-04T05:40:16;32.63;;;18.40;;
50988;SDS011;37008;52.210;21.112;2023-01-04T05:42:42;32.33;;;17.15;;
50988;SDS011;37008;52.210;21.112;2023-01-04T05:45:08;34.63;;;17.70;;
50988;SDS011;37008;52.210;21.112;2023-01-04T05:47:33;31.30;;;16.52;;
50988;SDS011;37008;52.210;21.112;2023-01-04T05:49:59;33.90;;;17.63;;
50988;SDS011;37008;52.210;21.112;2023-01-04T05:52:25;33.90;;;18.42;;
50988;SDS011;37008;52.210;21.112;2023-01-04T05:54:51;36.38;;;17.48;;
50988;SDS011;37008;52.210;21.112;2023-01-04T05:57:17;35.35;;;18.77;;
50988;SDS011;37008;52.210;21.112;2023-01-04T05:59:43;32.22;;;17.80;;
50988;SDS011;37008;52.210;21.112;2023-01-04T06:02:13;32.53;;;17.35;;
50988;SDS011;37008;52.210;21.112;2023-01-04T06:04:47;29.13;;;16.67;;
50988;SDS011;37008;52.210;21.112;2023-01-04T06:07:13;37.55;;;19.13;;
50988;SDS011;37008;52.210;21.112;2023-01-04T06:09:39;44.45;;;19.42;;
50988;SDS011;37008;52.210;21.112;2023-01-04T06:12:05;34.17;;;19.63;;
50988;SDS011;37008;52.210;21.112;2023-01-04T06:14:31;42.92;;;20.50;;
50988;SDS011;37008;52.210;21.112;2023-01-04T06:16:57;35.58;;;18.73;;
50988;SDS011;37008;52.210;21.112;2023-01-04T06:19:23;29.52;;;18.92;;
50988;SDS011;37008;52.210;21.112;2023-01-04T06:21:49;37.58;;;19.42;;
50988;SDS011;37008;52.210;21.112;2023-01-04T06:24:15;42.08;;;18.75;;
50988;SDS011;37008;52.210;21.112;2023-01-04T06:26:40;34.17;;;18.98;;
50988;SDS011;37008;52.210;21.112;2023-01-04T06:29:06;36.88;;;17.80;;
50988;SDS011;37008;52.210;21.112;2023-01-04T06:31:32;36.83;;;18.40;;
50988;SDS011;37008;52.210;21.112;2023-01-04T06:33:57;36.88;;;19.63;;
50988;SDS011;37008;52.210;21.112;2023-01-04T06:36:23;41.97;;;19.02;;
50988;SDS011;37008;52.210;21.112;2023-01-04T06:38:49;35.10;;;19.58;;
50988;SDS011;37008;52.210;21.112;2023-01-04T06:41:15;36.42;;;19.30;;
50988;SDS011;37008;52.210;21.112;2023-01-04T06:43:40;78.50;;;34.88;;
50988;SDS011;37008;52.210;21.112;2023-01-04T06:46:06;78.20;;;35.85;;
50988;SDS011;37008;52.210;21.112;2023-01-04T06:48:31;69.38;;;32.28;;
50988;SDS011;37008;52.210;21.112;2023-01-04T06:50:57;60.55;;;30.08;;
50988;SDS011;37008;52.210;21.112;2023-01-04T06:53:23;59.83;;;28.45;;
50988;SDS011;37008;52.210;21.112;2023-01-04T06:55:48;51.08;;;26.33;;
50988;SDS011;37008;52.210;21.112;2023-01-04T06:58:14;47.72;;;23.95;;
50988;SDS011;37008;52.210;21.112;2023-01-04T07:00:39;43.60;;;23.02;;
50988;SDS011;37008;52.210;21.112;2023-01-04T07:03:05;36.22;;;22.20;;
50988;SDS011;37008;52.210;21.112;2023-01-04T07:05:30;43.85;;;22.55;;
50988;SDS011;37008;52.210;21.112;2023-01-04T07:07:58;44.72;;;25.15;;
50988;SDS011;37008;52.210;21.112;2023-01-04T07:10:25;42.85;;;22.08;;
50988;SDS011;37008;52.210;21.112;2023-01-04T07:12:51;37.95;;;22.73;;
50988;SDS011;37008;52.210;21.112;2023-01-04T07:15:16;44.97;;;22.38;;
50988;SDS011;37008;52.210;21.112;2023-01-04T07:17:42;41.13;;;23.88;;
50988;SDS011;37008;52.210;21.112;2023-01-04T07:20:08;50.42;;;22.85;;
50988;SDS011;37008;52.210;21.112;2023-01-04T07:22:34;39.03;;;22.58;;
50988;SDS011;37008;52.210;21.112;2023-01-04T07:24:59;44.10;;;23.00;;
50988;SDS011;37008;52.210;21.112;2023-01-04T07:27:25;47.03;;;22.60;;
50988;SDS011;37008;52.210;21.112;2023-01-04T07:29:50;42.60;;;23.30;;
50988;SDS011;37008;52.210;21.112;2023-01-04T07:32:16;46.55;;;24.13;;
50988;SDS011;37008;52.210;21.112;2023-01-04T07:34:41;42.83;;;23.40;;
50988;SDS011;37008;52.210;21.112;2023-01-04T07:37:07;51.42;;;24.00;;
50988;SDS011;37008;52.210;21.112;2023-01-04T07:39:33;42.63;;;24.77;;
50988;SDS011;37008;52.210;21.112;2023-01-04T07:41:59;42.53;;;23.85;;
50988;SDS011;37008;52.210;21.112;2023-01-04T07:44:26;46.90;;;24.38;;
50988;SDS011;37008;52.210;21.112;2023-01-04T07:46:52;51.28;;;26.08;;
50988;SDS011;37008;52.210;21.112;2023-01-04T07:49:18;66.00;;;31.73;;
50988;SDS011;37008;52.210;21.112;2023-01-04T07:51:44;59.95;;;31.30;;
50988;SDS011;37008;52.210;21.112;2023-01-04T07:54:11;60.92;;;32.53;;
50988;SDS011;37008;52.210;21.112;2023-01-04T07:56:37;56.42;;;30.92;;
50988;SDS011;37008;52.210;21.112;2023-01-04T07:59:08;53.40;;;30.92;;
50988;SDS011;37008;52.210;21.112;2023-01-04T08:01:35;62.15;;;30.00;;
50988;SDS011;37008;52.210;21.112;2023-01-04T08:04:05;53.45;;;31.33;;
50988;SDS011;37008;52.210;21.112;2023-01-04T08:06:32;57.67;;;34.47;;
50988;SDS011;37008;52.210;21.112;2023-01-04T08:08:58;64.07;;;37.10;;
50988;SDS011;37008;52.210;21.112;2023-01-04T08:11:24;70.30;;;38.00;;
50988;SDS011;37008;52.210;21.112;2023-01-04T08:13:50;65.70;;;33.97;;
50988;SDS011;37008;52.210;21.112;2023-01-04T08:16:17;65.93;;;34.20;;
50988;SDS011;37008;52.210;21.112;2023-01-04T08:19:01;56.72;;;33.67;;
50988;SDS011;37008;52.210;21.112;2023-01-04T08:21:28;56.72;;;32.55;;
50988;SDS011;37008;52.210;21.112;2023-01-04T08:23:55;59.92;;;33.80;;
50988;SDS011;37008;52.210;21.112;2023-01-04T08:26:21;51.92;;;31.80;;
50988;SDS011;37008;52.210;21.112;2023-01-04T08:28:47;56.22;;;31.45;;
50988;SDS011;37008;52.210;21.112;2023-01-04T08:31:15;65.15;;;35.88;;
50988;SDS011;37008;52.210;21.112;2023-01-04T08:33:43;67.93;;;36.50;;
50988;SDS011;37008;52.210;21.112;2023-01-04T08:36:19;70.32;;;40.35;;
50988;SDS011;37008;52.210;21.112;2023-01-04T08:38:47;74.05;;;40.15;;
50988;SDS011;37008;52.210;21.112;2023-01-04T08:41:15;81.05;;;40.95;;
50988;SDS011;37008;52.210;21.112;2023-01-04T08:43:42;72.30;;;40.65;;
50988;SDS011;37008;52.210;21.112;2023-01-04T08:46:08;83.35;;;45.92;;
50988;SDS011;37008;52.210;21.112;2023-01-04T08:48:34;79.15;;;42.03;;
50988;SDS011;37008;52.210;21.112;2023-01-04T08:51:01;90.78;;;46.55;;
50988;SDS011;37008;52.210;21.112;2023-01-04T08:53:28;81.15;;;45.63;;
50988;SDS011;37008;52.210;21.112;2023-01-04T08:55:54;65.03;;;38.17;;
50988;SDS011;37008;52.210;21.112;2023-01-04T08:58:21;74.38;;;41.22;;
50988;SDS011;37008;52.210;21.112;2023-01-04T09:00:48;85.90;;;42.63;;
50988;SDS011;37008;52.210;21.112;2023-01-04T09:03:14;66.95;;;39.60;;
50988;SDS011;37008;52.210;21.112;2023-01-04T09:05:40;72.82;;;40.45;;
50988;SDS011;37008;52.210;21.112;2023-01-04T09:08:06;72.50;;;42.25;;
50988;SDS011;37008;52.210;21.112;2023-01-04T09:10:32;85.65;;;47.70;;
50988;SDS011;37008;52.210;21.112;2023-01-04T09:13:00;57.13;;;34.63;;
50988;SDS011;37008;52.210;21.112;2023-01-04T09:15:25;74.15;;;42.20;;
50988;SDS011;37008;52.210;21.112;2023-01-04T09:17:51;77.00;;;43.25;;
50988;SDS011;37008;52.210;21.112;2023-01-04T09:20:16;60.80;;;37.53;;
50988;SDS011;37008;52.210;21.112;2023-01-04T09:22:42;57.85;;;33.42;;
50988;SDS011;37008;52.210;21.112;2023-01-04T09:25:08;60.72;;;33.95;;
50988;SDS011;37008;52.210;21.112;2023-01-04T09:27:33;56.25;;;34.67;;
50988;SDS011;37008;52.210;21.112;2023-01-04T09:29:59;50.25;;;32.38;;
50988;SDS011;37008;52.210;21.112;2023-01-04T09:32:25;61.22;;;35.42;;
50988;SDS011;37008;52.210;21.112;2023-01-04T09:34:50;58.40;;;33.40;;
50988;SDS011;37008;52.210;21.112;2023-01-04T09:37:17;46.38;;;29.85;;
50988;SDS011;37008;52.210;21.112;2023-01-04T09:39:42;51.72;;;29.48;;
50988;SDS011;37008;52.210;21.112;2023-01-04T09:42:27;48.78;;;30.38;;
50988;SDS011;37008;52.210;21.112;2023-01-04T09:45:22;80.97;;;44.22;;
50988;SDS011;37008;52.210;21.112;2023-01-04T09:47:56;62.13;;;35.78;;
50988;SDS011;37008;52.210;21.112;2023-01-04T09:50:44;59.70;;;33.90;;
50988;SDS011;37008;52.210;21.112;2023-01-04T09:55:43;68.03;;;36.63;;
50988;SDS011;37008;52.210;21.112;2023-01-04T09:58:15;84.10;;;43.72;;
50988;SDS011;37008;52.210;21.112;2023-01-04T10:01:01;104.85;;;56.83;;
50988;SDS011;37008;52.210;21.112;2023-01-04T10:03:31;79.07;;;42.50;;
50988;SDS011;37008;52.210;21.112;2023-01-04T10:06:07;120.35;;;58.20;;
50988;SDS011;37008;52.210;21.112;2023-01-04T10:08:36;46.10;;;28.55;;
50988;SDS011;37008;52.210;21.112;2023-01-04T10:16:39;35.50;;;21.35;;
50988;SDS011;37008;52.210;21.112;2023-01-04T10:21:53;34.05;;;18.95;;
50988;SDS011;37008;52.210;21.112;2023-01-04T10:26:59;28.08;;;19.02;;
50988;SDS011;37008;52.210;21.112;2023-01-04T10:32:29;38.97;;;23.23;;
50988;SDS011;37008;52.210;21.112;2023-01-04T10:35:00;34.75;;;20.33;;
50988;SDS011;37008;52.210;21.112;2023-01-04T10:37:35;41.55;;;25.45;;
50988;SDS011;37008;52.210;21.112;2023-01-04T10:40:09;30.27;;;19.10;;
50988;SDS011;37008;52.210;21.112;2023-01-04T10:42:38;38.58;;;22.27;;
50988;SDS011;37008;52.210;21.112;2023-01-04T10:50:53;48.70;;;25.95;;
50988;SDS011;37008;52.210;21.112;2023-01-04T10:56:02;53.20;;;30.73;;
50988;SDS011;37008;52.210;21.112;2023-01-04T10:58:35;67.90;;;34.45;;
50988;SDS011;37008;52.210;21.112;2023-01-04T11:01:16;55.08;;;30.13;;
50988;SDS011;37008;52.210;21.112;2023-01-04T11:03:49;37.85;;;20.17;;
50988;SDS011;37008;52.210;21.112;2023-01-04T11:06:24;43.60;;;23.83;;
50988;SDS011;37008;52.210;21.112;2023-01-04T11:09:01;46.00;;;27.35;;
50988;SDS011;37008;52.210;21.112;2023-01-04T11:11:48;72.15;;;42.38;;
50988;SDS011;37008;52.210;21.112;2023-01-04T11:14:15;52.72;;;29.15;;
50988;SDS011;37008;52.210;21.112;2023-01-04T11:16:46;49.70;;;25.88;;
50988;SDS011;37008;52.210;21.112;2023-01-04T11:19:15;45.33;;;24.70;;
50988;SDS011;37008;52.210;21.112;2023-01-04T11:22:24;33.38;;;20.92;;
50988;SDS011;37008;52.210;21.112;2023-01-04T11:24:40;46.50;;;23.77;;
50988;SDS011;37008;52.210;21.112;2023-01-04T11:27:16;46.53;;;25.38;;
50988;SDS011;37008;52.210;21.112;2023-01-04T11:29:59;45.70;;;28.48;;
50988;SDS011;37008;52.210;21.112;2023-01-04T11:32:48;35.72;;;21.25;;
50988;SDS011;37008;52.210;21.112;2023-01-04T11:35:38;55.70;;;28.33;;
50988;SDS011;37008;52.210;21.112;2023-01-04T11:38:10;41.45;;;24.05;;
50988;SDS011;37008;52.210;21.112;2023-01-04T11:41:02;36.78;;;21.58;;
50988;SDS011;37008;52.210;21.112;2023-01-04T11:43:35;59.45;;;27.70;;
50988;SDS011;37008;52.210;21.112;2023-01-04T11:46:05;146.35;;;53.22;;
50988;SDS011;37008;52.210;21.112;2023-01-04T11:48:46;211.70;;;71.80;;
50988;SDS011;37008;52.210;21.112;2023-01-04T11:51:16;170.68;;;57.13;;
50988;SDS011;37008;52.210;21.112;2023-01-04T11:56:30;84.43;;;39.88;;
50988;SDS011;37008;52.210;21.112;2023-01-04T12:01:41;151.52;;;59.92;;
50988;SDS011;37008;52.210;21.112;2023-01-04T12:06:55;90.40;;;39.05;;
50988;SDS011;37008;52.210;21.112;2023-01-04T12:09:25;73.70;;;33.95;;
50988;SDS011;37008;52.210;21.112;2023-01-04T12:11:55;54.95;;;29.40;;
50988;SDS011;37008;52.210;21.112;2023-01-04T12:14:23;124.63;;;49.58;;
50988;SDS011;37008;52.210;21.112;2023-01-04T12:19:44;97.13;;;36.92;;
50988;SDS011;37008;52.210;21.112;2023-01-04T12:22:33;74.75;;;31.52;;
50988;SDS011;37008;52.210;21.112;2023-01-04T12:25:04;46.38;;;24.33;;
50988;SDS011;37008;52.210;21.112;2023-01-04T12:27:49;57.30;;;26.90;;
50988;SDS011;37008;52.210;21.112;2023-01-04T12:30:31;57.53;;;29.02;;
50988;SDS011;37008;52.210;21.112;2023-01-04T12:32:58;61.85;;;27.67;;
50988;SDS011;37008;52.210;21.112;2023-01-04T12:38:55;61.33;;;26.73;;
50988;SDS011;37008;52.210;21.112;2023-01-04T12:41:18;54.60;;;25.65;;
50988;SDS011;37008;52.210;21.112;2023-01-04T12:43:49;63.53;;;31.25;;
50988;SDS011;37008;52.210;21.112;2023-01-04T12:54:52;64.03;;;29.88;;
50988;SDS011;37008;52.210;21.112;2023-01-04T13:00:03;116.25;;;46.13;;
50988;SDS011;37008;52.210;21.112;2023-01-04T13:02:34;41.38;;;22.77;;
50988;SDS011;37008;52.210;21.112;2023-01-04T13:07:43;85.78;;;37.17;;
50988;SDS011;37008;52.210;21.112;2023-01-04T13:18:13;93.53;;;31.55;;
50988;SDS011;37008;52.210;21.112;2023-01-04T13:21:01;80.40;;;32.70;;
50988;SDS011;37008;52.210;21.112;2023-01-04T13:23:33;47.20;;;21.90;;
50988;SDS011;37008;52.210;21.112;2023-01-04T13:29:16;134.00;;;44.95;;
50988;SDS011;37008;52.210;21.112;2023-01-04T13:31:47;69.75;;;30.33;;
50988;SDS011;37008;52.210;21.112;2023-01-04T13:34:50;43.90;;;23.15;;
50988;SDS011;37008;52.210;21.112;2023-01-04T13:37:27;86.97;;;39.63;;
50988;SDS011;37008;52.210;21.112;2023-01-04T13:45:46;64.05;;;29.73;;
50988;SDS011;37008;52.210;21.112;2023-01-04T13:48:17;71.07;;;36.42;;
50988;SDS011;37008;52.210;21.112;2023-01-04T13:53:27;30.10;;;18.65;;
50988;SDS011;37008;52.210;21.112;2023-01-04T13:55:55;35.58;;;18.10;;
50988;SDS011;37008;52.210;21.112;2023-01-04T13:58:27;29.63;;;20.17;;
50988;SDS011;37008;52.210;21.112;2023-01-04T14:00:55;36.05;;;21.63;;
50988;SDS011;37008;52.210;21.112;2023-01-04T14:05:53;29.77;;;18.95;;
50988;SDS011;37008;52.210;21.112;2023-01-04T14:08:29;26.33;;;18.80;;
50988;SDS011;37008;52.210;21.112;2023-01-04T14:11:14;26.33;;;16.08;;
50988;SDS011;37008;52.210;21.112;2023-01-04T14:14:03;24.20;;;16.23;;
50988;SDS011;37008;52.210;21.112;2023-01-04T14:16:39;31.77;;;18.13;;
50988;SDS011;37008;52.210;21.112;2023-01-04T14:22:17;54.20;;;32.50;;
50988;SDS011;37008;52.210;21.112;2023-01-04T14:33:46;32.85;;;19.65;;
50988;SDS011;37008;52.210;21.112;2023-01-04T14:36:17;22.77;;;13.75;;
50988;SDS011;37008;52.210;21.112;2023-01-04T14:39:15;27.25;;;16.13;;
50988;SDS011;37008;52.210;21.112;2023-01-04T14:41:51;30.38;;;19.25;;
50988;SDS011;37008;52.210;21.112;2023-01-04T14:46:55;22.17;;;14.05;;
50988;SDS011;37008;52.210;21.112;2023-01-04T14:49:22;25.73;;;15.02;;
50988;SDS011;37008;52.210;21.112;2023-01-04T14:54:21;31.90;;;18.48;;
50988;SDS011;37008;52.210;21.112;2023-01-04T14:56:48;33.72;;;18.20;;
50988;SDS011;37008;52.210;21.112;2023-01-04T14:59:13;29.70;;;18.08;;
50988;SDS011;37008;52.210;21.112;2023-01-04T15:01:39;25.40;;;14.52;;
50988;SDS011;37008;52.210;21.112;2023-01-04T15:04:05;27.08;;;17.25;;
50988;SDS011;37008;52.210;21.112;2023-01-04T15:06:31;35.90;;;20.52;;
50988;SDS011;37008;52.210;21.112;2023-01-04T15:08:58;34.30;;;18.98;;
50988;SDS011;37008;52.210;21.112;2023-01-04T15:11:23;30.63;;;17.42;;
50988;SDS011;37008;52.210;21.112;2023-01-04T15:13:49;40.05;;;21.30;;
50988;SDS011;37008;52.210;21.112;2023-01-04T15:16:15;41.53;;;26.52;;
50988;SDS011;37008;52.210;21.112;2023-01-04T15:18:42;41.53;;;24.63;;
50988;SDS011;37008;52.210;21.112;2023-01-04T15:21:09;29.95;;;19.30;;
50988;SDS011;37008;52.210;21.112;2023-01-04T15:23:35;41.33;;;23.23;;
50988;SDS011;37008;52.210;21.112;2023-01-04T15:26:04;37.95;;;24.05;;
50988;SDS011;37008;52.210;21.112;2023-01-04T15:28:31;43.00;;;27.20;;
50988;SDS011;37008;52.210;21.112;2023-01-04T15:30:57;48.97;;;29.77;;
50988;SDS011;37008;52.210;21.112;2023-01-04T15:33:22;86.82;;;55.05;;
50988;SDS011;37008;52.210;21.112;2023-01-04T15:35:56;48.40;;;29.15;;
50988;SDS011;37008;52.210;21.112;2023-01-04T15:38:27;52.13;;;30.55;;
50988;SDS011;37008;52.210;21.112;2023-01-04T15:41:00;73.68;;;40.20;;
50988;SDS011;37008;52.210;21.112;2023-01-04T15:43:34;35.38;;;23.13;;
50988;SDS011;37008;52.210;21.112;2023-01-04T15:46:04;53.60;;;30.70;;
50988;SDS011;37008;52.210;21.112;2023-01-04T15:48:32;36.28;;;22.60;;
50988;SDS011;37008;52.210;21.112;2023-01-04T15:51:04;31.85;;;19.52;;
50988;SDS011;37008;52.210;21.112;2023-01-04T15:53:32;34.30;;;22.83;;
50988;SDS011;37008;52.210;21.112;2023-01-04T15:56:05;31.23;;;20.17;;
50988;SDS011;37008;52.210;21.112;2023-01-04T15:58:32;42.33;;;24.42;;
50988;SDS011;37008;52.210;21.112;2023-01-04T16:01:05;30.30;;;19.85;;
50988;SDS011;37008;52.210;21.112;2023-01-04T16:03:33;31.55;;;20.05;;
50988;SDS011;37008;52.210;21.112;2023-01-04T16:06:02;55.50;;;33.35;;
50988;SDS011;37008;52.210;21.112;2023-01-04T16:08:32;45.05;;;27.20;;
50988;SDS011;37008;52.210;21.112;2023-01-04T16:10:57;31.13;;;18.83;;
50988;SDS011;37008;52.210;21.112;2023-01-04T16:13:23;25.73;;;17.10;;
50988;SDS011;37008;52.210;21.112;2023-01-04T16:15:48;30.10;;;17.67;;
50988;SDS011;37008;52.210;21.112;2023-01-04T16:18:14;31.90;;;17.90;;
50988;SDS011;37008;52.210;21.112;2023-01-04T16:20:40;24.33;;;15.93;;
50988;SDS011;37008;52.210;21.112;2023-01-04T16:23:06;27.88;;;16.98;;
50988;SDS011;37008;52.210;21.112;2023-01-04T16:25:31;26.23;;;16.83;;
50988;SDS011;37008;52.210;21.112;2023-01-04T16:27:57;28.15;;;17.92;;
50988;SDS011;37008;52.210;21.112;2023-01-04T16:30:22;28.75;;;16.88;;
50988;SDS011;37008;52.210;21.112;2023-01-04T16:32:48;35.15;;;19.30;;